Atlantic Tramp — V7SM5 — position and weather

sailwx.info

Track history (hours):
 
Tides and Currents Weather Stations Pressure Air Temp Water Temp Dewpoint Dewpoint Depression Visibility Wind Speed Wind Dir Waves Ship Positions

Atlantic Tramp

Last reported at 2016-Nov-14 00:14 UTC. Time now 2016-Dec-08 00:16 UTC.
Position N 28°07' W 015°25'.
Warning: this ship's position is 24 days out of date.

Length 180 m; draft 9.3 m.

Type: Cargo ship. MMSI: 538003682.

Date/timePositionNaut miles runAvg speedWind from/ knotsBaromVisibWave heightAir tempDewpointWater temp
2016-Nov-14 00:14N 28°07' W 015°25'0 0.0
2016-Nov-13 23:29N 28°07' W 015°25'0 0.1
2016-Nov-13 22:32N 28°07' W 015°25'0 0.0
2016-Nov-13 19:32N 28°07' W 015°25'0 0.0
2016-Nov-13 18:32N 28°07' W 015°25'0 0.0
2016-Nov-13 17:32N 28°07' W 015°25'0 0.0
2016-Nov-13 15:23N 28°07' W 015°25'0 0.0
2016-Nov-13 13:26N 28°07' W 015°25'1 0.4
2016-Nov-13 10:26N 28°06' W 015°24'0 0.0
2016-Nov-13 08:33N 28°06' W 015°24'0 0.0
2016-Nov-13 05:33N 28°06' W 015°24'0 0.0
2016-Nov-13 03:33N 28°06' W 015°24'0 0.0
2016-Nov-12 23:33N 28°06' W 015°24'0 0.0
2016-Nov-12 21:33N 28°06' W 015°24'0 0.0
2016-Nov-12 19:33N 28°06' W 015°24'0 0.0
2016-Nov-12 17:33N 28°06' W 015°24'0 0.0
2016-Nov-12 16:33N 28°06' W 015°24'0 0.0
2016-Nov-12 15:33N 28°06' W 015°24'0 0.0
2016-Nov-12 14:33N 28°06' W 015°24'0 0.0
2016-Nov-12 13:33N 28°06' W 015°24'3 3.0
2016-Nov-12 12:33N 28°08' W 015°22'7 6.9
2016-Nov-12 11:33N 28°14' W 015°18'2713.6
2016-Nov-12 09:33N 28°37' W 015°01'  
Track history (hours):
 
Tides and Currents Weather Stations Pressure Air Temp Water Temp Dewpoint Dewpoint Depression Visibility Wind Speed Wind Dir Waves Ship Positions

Atlantic Tramp

Last reported at 2016-Nov-14 00:14 UTC. Time now 2016-Dec-08 00:16 UTC.
Position N 28°07' W 015°25'.
Warning: this ship's position is 24 days out of date.

Length 180 m; draft 9.3 m.

Type: Cargo ship. MMSI: 538003682.

Date/timePositionNaut miles runAvg speedWind from/ knotsBaromVisibWave heightAir tempDewpointWater temp
2016-Nov-14 00:14N 28°07' W 015°25'0 0.0
2016-Nov-13 23:29N 28°07' W 015°25'0 0.1
2016-Nov-13 22:32N 28°07' W 015°25'0 0.0
2016-Nov-13 19:32N 28°07' W 015°25'0 0.0
2016-Nov-13 18:32N 28°07' W 015°25'0 0.0
2016-Nov-13 17:32N 28°07' W 015°25'0 0.0
2016-Nov-13 15:23N 28°07' W 015°25'0 0.0
2016-Nov-13 13:26N 28°07' W 015°25'1 0.4
2016-Nov-13 10:26N 28°06' W 015°24'0 0.0
2016-Nov-13 08:33N 28°06' W 015°24'0 0.0
2016-Nov-13 05:33N 28°06' W 015°24'0 0.0
2016-Nov-13 03:33N 28°06' W 015°24'0 0.0
2016-Nov-12 23:33N 28°06' W 015°24'0 0.0
2016-Nov-12 21:33N 28°06' W 015°24'0 0.0
2016-Nov-12 19:33N 28°06' W 015°24'0 0.0
2016-Nov-12 17:33N 28°06' W 015°24'0 0.0
2016-Nov-12 16:33N 28°06' W 015°24'0 0.0
2016-Nov-12 15:33N 28°06' W 015°24'0 0.0
2016-Nov-12 14:33N 28°06' W 015°24'0 0.0
2016-Nov-12 13:33N 28°06' W 015°24'3 3.0
2016-Nov-12 12:33N 28°08' W 015°22'7 6.9
2016-Nov-12 11:33N 28°14' W 015°18'2713.6
2016-Nov-12 09:33N 28°37' W 015°01'  

Dump ship's entire track history